Time;durP1;ratioP1;P1;durP2;ratioP2;P2;SDS_P1;SDS_P2;PMS_P1;PMS_P2;Temp;Humidity;BMP_temperature;BMP_pressure;BME280_temperature;BME280_humidity;BME280_pressure;Samples;Min_cycle;Max_cycle;Signal;HPM_P1;HPM_P2
2022/06/03 00:00:48;;;;;;;3.73;3.13;;;12.40;99.90;;;;;;4328253;28;10001282;-81
2022/06/03 00:03:44;;;;;;;4.97;3.20;;;12.40;99.90;;;;;;5015279;28;20041;-82
2022/06/03 00:06:13;;;;;;;3.90;3.50;;;12.30;99.90;;;;;;5017950;28;20021;-81
2022/06/03 00:09:12;;;;;;;3.60;3.00;;;12.30;99.90;;;;;;5022227;28;20022;-81
2022/06/03 00:11:49;;;;;;;4.15;3.45;;;12.20;99.90;;;;;;5015567;28;20049;-81
2022/06/03 00:14:48;;;;;;;5.55;3.45;;;12.20;99.90;;;;;;5019128;28;20032;-81
2022/06/03 00:17:38;;;;;;;3.50;3.08;;;12.20;99.90;;;;;;5023813;28;20029;-81
2022/06/03 00:20:39;;;;;;;4.38;3.30;;;12.20;99.90;;;;;;5006455;28;20049;-81
2022/06/03 00:23:07;;;;;;;3.83;3.28;;;12.20;99.90;;;;;;5020222;28;20021;-81
2022/06/03 00:26:11;;;;;;;5.63;3.60;;;12.10;99.90;;;;;;5024249;28;20021;-81
2022/06/03 00:29:34;;;;;;;3.80;3.00;;;12.10;99.90;;;;;;4954813;28;20125;-81
2022/06/03 00:32:20;;;;;;;4.30;2.95;;;12.10;99.90;;;;;;4939330;29;20090;-81
2022/06/03 00:35:03;;;;;;;3.53;3.20;;;12.10;99.90;;;;;;4940573;29;20027;-81
2022/06/03 00:37:47;;;;;;;4.43;3.00;;;12.10;99.90;;;;;;4991766;28;20092;-81
2022/06/03 00:40:31;;;;;;;4.10;3.50;;;12.10;99.90;;;;;;5012059;28;20035;-81
2022/06/03 00:43:04;;;;;;;3.78;3.25;;;12.10;99.90;;;;;;5023682;28;20034;-81
2022/06/03 00:45:32;;;;;;;4.63;3.30;;;12.10;99.90;;;;;;5008171;28;20049;-81
2022/06/03 00:48:15;;;;;;;4.72;3.72;;;12.00;99.90;;;;;;5017835;28;20272;-81
2022/06/03 00:50:46;;;;;;;3.90;3.50;;;12.00;99.90;;;;;;5018565;28;20037;-81
2022/06/03 00:53:30;;;;;;;5.95;3.78;;;12.00;99.90;;;;;;5024221;28;20033;-81
2022/06/03 00:56:34;;;;;;;3.63;3.33;;;11.90;99.90;;;;;;5017080;28;20130;-81
2022/06/03 00:59:34;;;;;;;5.95;3.33;;;11.90;99.90;;;;;;5001305;28;20045;-81
2022/06/03 01:02:18;;;;;;;4.65;2.92;;;11.90;99.90;;;;;;5010050;28;20136;-81
2022/06/03 01:04:53;;;;;;;4.43;3.67;;;11.90;99.90;;;;;;5012471;28;20025;-81
2022/06/03 01:07:33;;;;;;;4.55;3.22;;;11.90;99.90;;;;;;5020450;28;20029;-81
2022/06/03 01:10:10;;;;;;;5.00;3.55;;;11.90;99.90;;;;;;5005021;28;20076;-81
2022/06/03 01:12:53;;;;;;;4.85;3.70;;;11.90;99.90;;;;;;5018624;28;20049;-81
2022/06/03 01:15:54;;;;;;;5.93;3.55;;;11.90;99.90;;;;;;5028373;28;20087;-81
2022/06/03 01:18:33;;;;;;;3.65;3.17;;;11.90;99.90;;;;;;4983016;28;20102;-81
2022/06/03 01:21:17;;;;;;;4.65;3.97;;;11.80;99.90;;;;;;5012901;28;20022;-81
2022/06/03 01:24:09;;;;;;;5.57;4.30;;;11.80;99.90;;;;;;5023078;28;20127;-81
2022/06/03 01:27:09;;;;;;;6.53;3.50;;;11.80;99.90;;;;;;5023281;28;20117;-81
2022/06/03 01:29:58;;;;;;;4.65;3.80;;;11.80;99.90;;;;;;5009865;28;20071;-81
2022/06/03 01:32:58;;;;;;;5.95;3.83;;;11.80;99.90;;;;;;5026889;28;20040;-81
2022/06/03 01:35:41;;;;;;;5.30;3.65;;;11.80;99.90;;;;;;5017259;28;20033;-81
2022/06/03 01:38:27;;;;;;;6.22;3.78;;;11.70;99.90;;;;;;5015943;28;20044;-81
2022/06/03 01:41:08;;;;;;;4.45;4.03;;;11.70;99.90;;;;;;5021969;28;20044;-80
2022/06/03 01:44:11;;;;;;;4.80;3.97;;;11.70;99.90;;;;;;5020294;28;20126;-81
2022/06/03 01:47:05;;;;;;;7.25;4.18;;;11.70;99.90;;;;;;5025752;28;20025;-81
2022/06/03 01:49:59;;;;;;;6.25;4.07;;;11.70;99.90;;;;;;5019658;28;20030;-81
2022/06/03 01:52:33;;;;;;;5.63;3.67;;;11.60;99.90;;;;;;5016087;28;20176;-81
2022/06/03 01:55:38;;;;;;;4.07;3.67;;;11.60;99.90;;;;;;5024870;28;20038;-82
2022/06/03 01:58:27;;;;;;;9.50;4.03;;;11.60;99.90;;;;;;5013692;28;20049;-81
2022/06/03 02:01:17;;;;;;;5.78;4.43;;;11.60;99.90;;;;;;5024611;28;20036;-81
2022/06/03 02:03:57;;;;;;;5.13;4.47;;;11.60;99.90;;;;;;5018866;28;20043;-81
2022/06/03 02:06:54;;;;;;;5.97;4.40;;;11.60;99.90;;;;;;5020730;28;20033;-81
2022/06/03 02:09:40;;;;;;;7.53;4.40;;;11.60;99.90;;;;;;5018053;28;20096;-81
2022/06/03 02:12:41;;;;;;;6.18;4.50;;;11.60;99.90;;;;;;5018320;28;20060;-81
2022/06/03 02:15:30;;;;;;;4.65;4.18;;;11.60;99.90;;;;;;5020181;28;20060;-81
2022/06/03 02:18:13;;;;;;;9.73;4.68;;;11.50;99.90;;;;;;5022144;28;20067;-81
2022/06/03 02:21:05;;;;;;;5.72;4.10;;;11.50;99.90;;;;;;5013914;28;20076;-81
2022/06/03 02:23:33;;;;;;;7.63;4.38;;;11.50;99.90;;;;;;5014070;28;20052;-81
2022/06/03 02:26:29;;;;;;;7.07;4.68;;;11.50;99.90;;;;;;5021936;28;20087;-81
2022/06/03 02:32:32;;;;;;;5.85;4.30;;;11.50;99.90;;;;;;5021658;28;20091;-81
2022/06/03 02:35:15;;;;;;;6.22;4.72;;;11.50;99.90;;;;;;5020836;28;20034;-81
2022/06/03 02:37:48;;;;;;;5.80;4.63;;;11.50;99.90;;;;;;5025687;28;20495;-82
2022/06/03 02:40:26;;;;;;;;;;;11.50;99.90;;;;;;5022960;28;20460;-82
2022/06/03 02:43:25;;;;;;;5.72;4.47;;;11.40;99.90;;;;;;5016144;28;19909;-82
2022/06/03 02:46:16;;;;;;;6.47;4.30;;;11.40;99.90;;;;;;5020931;28;20528;-81
2022/06/03 02:49:33;;;;;;;5.22;4.55;;;11.40;99.90;;;;;;5024147;28;20037;-81
2022/06/03 02:52:40;;;;;;;6.22;4.63;;;11.40;99.90;;;;;;5012974;28;20439;-81
2022/06/03 02:55:34;;;;;;;8.88;5.18;;;11.40;99.90;;;;;;5020284;28;20025;-81
2022/06/03 02:58:17;;;;;;;7.47;5.10;;;11.40;99.90;;;;;;5021492;28;20045;-82
2022/06/03 03:01:08;;;;;;;;;;;11.40;99.90;;;;;;5011098;28;20518;-82
2022/06/03 03:04:21;;;;;;;11.20;5.20;;;11.40;99.90;;;;;;5018016;28;19909;-81
2022/06/03 03:06:55;;;;;;;6.75;4.80;;;11.30;99.90;;;;;;5023031;28;20018;-81
2022/06/03 03:09:44;;;;;;;9.50;4.93;;;11.30;99.90;;;;;;5022910;28;20030;-82
2022/06/03 03:12:31;;;;;;;7.72;5.40;;;11.30;99.90;;;;;;5014493;28;20044;-81
2022/06/03 03:15:02;;;;;;;7.80;4.50;;;11.30;99.90;;;;;;5018535;28;20036;-81
2022/06/03 03:17:58;;;;;;;6.07;4.70;;;11.30;99.90;;;;;;5021059;28;20037;-81
2022/06/03 03:20:33;;;;;;;8.07;4.90;;;11.30;99.90;;;;;;5016047;28;20561;-81
2022/06/03 03:23:36;;;;;;;8.82;5.10;;;11.20;99.90;;;;;;5018930;28;20060;-81
2022/06/03 03:26:26;;;;;;;6.93;5.15;;;11.30;99.90;;;;;;5016515;28;20022;-81
2022/06/03 03:29:22;;;;;;;7.82;5.30;;;11.20;99.90;;;;;;5007728;28;20168;-81
2022/06/03 03:32:14;;;;;;;5.85;5.22;;;11.30;99.90;;;;;;5012442;28;20029;-81
2022/06/03 03:35:07;;;;;;;6.93;4.80;;;11.30;99.90;;;;;;5017060;28;20026;-81
2022/06/03 03:38:15;;;;;;;8.38;5.07;;;11.30;99.90;;;;;;5009832;28;20025;-81
2022/06/03 03:40:59;;;;;;;7.28;4.93;;;11.30;99.90;;;;;;5019960;28;20044;-81
2022/06/03 03:43:54;;;;;;;8.00;5.35;;;11.30;99.90;;;;;;5023535;28;20416;-81
2022/06/03 03:46:38;;;;;;;6.18;4.70;;;11.30;99.90;;;;;;5018616;28;20390;-81
2022/06/03 03:49:22;;;;;;;6.50;5.18;;;11.40;99.90;;;;;;5018331;28;20134;-81
2022/06/03 03:52:04;;;;;;;6.55;5.07;;;11.40;99.90;;;;;;5016628;28;20033;-81
2022/06/03 03:54:47;;;;;;;8.35;5.20;;;11.50;99.90;;;;;;5014200;28;20030;-81
2022/06/03 03:57:21;;;;;;;7.40;5.10;;;11.50;99.90;;;;;;5017307;28;20579;-81
2022/06/03 04:00:20;;;;;;;6.78;4.95;;;11.60;99.90;;;;;;5016855;28;20080;-81
2022/06/03 04:02:58;;;;;;;6.78;5.00;;;11.60;99.90;;;;;;5021443;28;20037;-81
2022/06/03 04:05:43;;;;;;;5.63;5.00;;;11.60;99.90;;;;;;5011691;28;20021;-81
2022/06/03 04:08:53;;;;;;;6.05;4.82;;;11.60;99.90;;;;;;5016236;28;20083;-81
2022/06/03 04:11:36;;;;;;;6.78;5.10;;;11.80;99.90;;;;;;5015257;28;20037;-81
2022/06/03 04:14:43;;;;;;;5.07;4.57;;;12.50;99.90;;;;;;5024476;28;20048;-81
2022/06/03 04:17:37;;;;;;;7.53;5.20;;;13.50;99.90;;;;;;5033010;28;20094;-81
2022/06/03 04:20:33;;;;;;;8.13;5.30;;;14.40;99.90;;;;;;4993429;28;20049;-81
2022/06/03 04:23:36;;;;;;;5.50;4.72;;;13.70;99.90;;;;;;5021454;28;20116;-82
2022/06/03 04:26:49;;;;;;;6.38;5.20;;;13.20;99.90;;;;;;5017960;28;20029;-82
2022/06/03 04:29:49;;;;;;;6.35;4.88;;;13.20;99.90;;;;;;5005953;28;20044;-82
2022/06/03 04:32:49;;;;;;;5.20;4.63;;;13.30;99.90;;;;;;5016062;28;20703;-83
2022/06/03 04:35:48;;;;;;;9.93;5.15;;;13.40;99.90;;;;;;5015302;28;20052;-83
2022/06/03 04:38:51;;;;;;;6.78;5.57;;;13.30;99.90;;;;;;5018654;28;20036;-83
2022/06/03 04:41:50;;;;;;;9.88;5.40;;;13.10;99.90;;;;;;5011080;28;20575;-82
2022/06/03 04:44:53;;;;;;;7.75;5.82;;;12.90;99.90;;;;;;5020361;28;20029;-83
2022/06/03 04:47:39;;;;;;;6.35;5.07;;;12.70;99.90;;;;;;5019229;28;20028;-82
2022/06/03 04:50:21;;;;;;;7.95;5.13;;;12.70;99.90;;;;;;5017980;28;20033;-82
2022/06/03 04:53:24;;;;;;;8.73;5.45;;;12.50;99.90;;;;;;5020626;28;20033;-82
2022/06/03 04:56:05;;;;;;;7.03;5.60;;;12.50;99.90;;;;;;5025372;28;20025;-83
2022/06/03 04:59:12;;;;;;;6.18;5.53;;;12.40;99.90;;;;;;5025984;28;20064;-83
2022/06/03 05:02:15;;;;;;;8.68;6.13;;;12.50;99.90;;;;;;4968571;28;20054;-83
2022/06/03 05:05:17;;;;;;;9.95;6.18;;;12.50;99.90;;;;;;5023092;28;20104;-82
2022/06/03 05:07:52;;;;;;;6.78;6.07;;;12.50;99.90;;;;;;5010155;28;20033;-82
2022/06/03 05:10:52;;;;;;;7.32;5.90;;;12.50;99.90;;;;;;5018678;28;20021;-82
2022/06/03 05:13:45;;;;;;;8.48;5.72;;;12.70;99.90;;;;;;5017903;28;20037;-82
2022/06/03 05:16:28;;;;;;;7.20;5.88;;;12.80;99.90;;;;;;5010903;28;20841;-83
2022/06/03 05:18:55;;;;;;;12.20;5.75;;;12.90;99.90;;;;;;5008526;28;20394;-84
2022/06/03 05:21:48;;;;;;;6.38;5.70;;;13.00;99.90;;;;;;5009374;28;20473;-83
2022/06/03 05:24:34;;;;;;;10.05;5.95;;;13.30;99.90;;;;;;5010449;28;20026;-84
2022/06/03 05:27:01;;;;;;;8.25;5.68;;;13.40;99.90;;;;;;4998034;28;20367;-83
2022/06/03 05:30:15;;;;;;;6.10;5.50;;;13.50;99.90;;;;;;5010398;28;20029;-83
2022/06/03 05:33:18;;;;;;;8.32;5.72;;;13.40;99.90;;;;;;5009505;28;20048;-83
2022/06/03 05:36:01;;;;;;;8.10;5.80;;;13.30;99.90;;;;;;5020871;28;20116;-83
2022/06/03 05:38:40;;;;;;;6.72;5.85;;;13.50;99.90;;;;;;5007458;28;20308;-84
2022/06/03 05:44:57;;;;;;;8.77;5.00;;;14.30;99.90;;;;;;5022676;28;20555;-85
2022/06/03 05:47:45;;;;;;;8.38;5.75;;;14.80;99.90;;;;;;5027729;28;20021;-84
2022/06/03 05:50:42;;;;;;;7.20;5.43;;;15.10;99.90;;;;;;5018215;28;20038;-83
2022/06/03 05:53:38;;;;;;;6.13;5.03;;;15.30;99.90;;;;;;5013970;28;20033;-84
2022/06/03 05:56:32;;;;;;;7.03;5.00;;;15.50;99.90;;;;;;5022421;28;20489;-83
2022/06/03 05:59:22;;;;;;;5.32;4.70;;;15.50;99.90;;;;;;5011861;28;20076;-83
2022/06/03 06:02:20;;;;;;;6.45;5.07;;;15.60;99.90;;;;;;5021173;28;20074;-84
2022/06/03 06:04:52;;;;;;;6.15;5.00;;;15.60;99.90;;;;;;5018681;28;20029;-84
2022/06/03 06:07:37;;;;;;;6.20;4.70;;;15.60;99.90;;;;;;5009405;28;20034;-84
2022/06/03 06:10:13;;;;;;;6.57;5.53;;;15.70;99.90;;;;;;5021009;28;20083;-84
2022/06/03 06:12:53;;;;;;;6.00;4.88;;;15.60;99.90;;;;;;5026573;28;20492;-84
2022/06/03 06:15:52;;;;;;;8.10;4.97;;;15.60;99.90;;;;;;5023391;28;20049;-84
2022/06/03 06:18:47;;;;;;;7.20;4.80;;;15.60;99.90;;;;;;5020270;28;20042;-84
2022/06/03 06:21:23;;;;;;;6.68;4.70;;;15.70;99.90;;;;;;5022956;28;20117;-84
2022/06/03 06:24:01;;;;;;;6.20;4.70;;;16.00;99.90;;;;;;5021191;28;20393;-85
2022/06/03 06:26:40;;;;;;;7.82;4.97;;;16.10;99.90;;;;;;5016486;28;20021;-89
2022/06/03 06:29:39;;;;;;;7.07;4.88;;;16.30;99.90;;;;;;5023074;28;20075;-88
2022/06/03 06:32:19;;;;;;;6.32;4.93;;;16.60;99.90;;;;;;5010528;28;20064;-87
2022/06/03 06:35:07;;;;;;;6.05;4.53;;;16.80;99.90;;;;;;5019456;28;20741;-88
2022/06/03 06:38:03;;;;;;;6.68;4.57;;;17.00;99.90;;;;;;5024503;28;20165;-89
2022/06/03 06:40:52;;;;;;;4.70;4.25;;;17.10;99.90;;;;;;5020216;28;20056;-89
2022/06/03 06:43:42;;;;;;;6.32;3.67;;;17.40;99.90;;;;;;5024037;28;20052;-89
2022/06/03 06:46:17;;;;;;;6.07;3.08;;;17.60;99.90;;;;;;5024853;28;20064;-90
2022/06/03 06:48:45;;;;;;;3.08;2.70;;;17.70;99.90;;;;;;5016782;28;20643;-87
2022/06/03 06:51:43;;;;;;;4.90;2.67;;;17.80;99.90;;;;;;5019193;28;20036;-89
2022/06/03 06:54:51;;;;;;;6.78;2.40;;;17.90;99.90;;;;;;5018145;28;20189;-88
2022/06/03 06:57:33;;;;;;;8.23;2.25;;;18.00;99.90;;;;;;4674495;28;10001256;-86
2022/06/03 07:00:16;;;;;;;4.80;2.33;;;18.20;99.90;;;;;;5013655;28;20026;-86
2022/06/03 07:02:49;;;;;;;2.55;2.20;;;18.30;99.90;;;;;;5012163;28;20108;-85
2022/06/03 07:05:28;;;;;;;3.63;2.33;;;18.30;99.90;;;;;;5022962;28;20083;-84
2022/06/03 07:08:09;;;;;;;3.50;2.47;;;18.40;99.90;;;;;;5018730;28;20038;-83
2022/06/03 07:10:54;;;;;;;2.80;2.35;;;18.40;99.90;;;;;;5020818;28;20094;-82
2022/06/03 07:13:22;;;;;;;3.55;2.10;;;18.60;99.90;;;;;;5019703;28;20762;-82
2022/06/03 07:16:14;;;;;;;3.38;2.10;;;18.70;99.90;;;;;;5015301;28;20038;-84
2022/06/03 07:22:05;;;;;;;5.22;2.35;;;18.80;99.90;;;;;;5024881;28;20121;-82
2022/06/03 07:25:18;;;;;;;2.92;1.90;;;18.60;99.90;;;;;;5019741;28;20025;-83
2022/06/03 07:27:56;;;;;;;3.50;2.13;;;18.30;99.90;;;;;;4975701;28;20029;-82
2022/06/03 07:30:24;;;;;;;3.78;2.40;;;18.20;99.90;;;;;;5009339;28;21033;-82
2022/06/03 07:33:09;;;;;;;2.50;2.28;;;18.10;99.90;;;;;;5017382;28;20137;-82
2022/06/03 07:35:41;;;;;;;4.43;2.10;;;18.10;99.90;;;;;;5014698;28;20049;-83
2022/06/03 07:38:20;;;;;;;3.03;1.90;;;18.20;99.90;;;;;;5011725;28;20502;-83
2022/06/03 07:41:07;;;;;;;4.35;1.83;;;18.40;99.90;;;;;;5014930;28;20033;-84
2022/06/03 07:43:43;;;;;;;2.92;2.20;;;18.50;99.90;;;;;;5016089;28;20072;-83
2022/06/03 07:46:17;;;;;;;2.00;1.90;;;18.60;99.90;;;;;;5019748;28;20022;-83
2022/06/03 07:48:43;;;;;;;3.45;1.98;;;18.80;99.90;;;;;;5007765;28;20098;-76
2022/06/03 07:51:17;;;;;;;2.40;1.98;;;19.00;99.90;;;;;;5016193;28;20770;-82
2022/06/03 07:53:58;;;;;;;5.78;2.20;;;19.10;99.90;;;;;;5020658;28;20123;-81
2022/06/03 07:56:30;;;;;;;2.17;1.98;;;19.20;99.90;;;;;;5009290;28;20567;-81
2022/06/03 07:59:01;;;;;;;3.92;2.00;;;19.40;99.90;;;;;;5017471;28;20044;-81
2022/06/03 08:01:34;;;;;;;5.72;2.00;;;19.60;99.90;;;;;;5018380;28;20049;-82
2022/06/03 08:04:00;;;;;;;;;;;19.70;99.90;;;;;;5018653;28;20118;-81
2022/06/03 08:10:56;;;;;;;3.08;2.08;;;19.80;99.90;;;;;;5016132;28;19921;-82
2022/06/03 08:12:02;;;;;;;4.70;1.60;;;19.80;99.90;;;;;;5022173;28;20083;-81
2022/06/03 08:14:28;;;;;;;2.13;1.58;;;19.70;99.90;;;;;;5019163;28;20452;-81
2022/06/03 08:16:54;;;;;;;2.63;1.65;;;19.70;99.90;;;;;;5014604;28;20033;-82
2022/06/03 08:19:26;;;;;;;4.55;1.52;;;19.70;99.90;;;;;;5013689;28;20033;-82
2022/06/03 08:22:01;;;;;;;1.88;1.60;;;19.70;99.90;;;;;;5019972;28;20044;-82
2022/06/03 08:24:34;;;;;;;1.70;1.60;;;19.60;99.90;;;;;;5018085;28;20026;-82
2022/06/03 08:27:09;;;;;;;12.90;1.70;;;19.60;99.90;;;;;;5020756;28;20536;-82
2022/06/03 08:29:37;;;;;;;4.45;1.65;;;19.50;99.90;;;;;;5018573;28;20067;-82
2022/06/03 08:32:08;;;;;;;1.70;1.60;;;19.40;99.90;;;;;;5012073;28;20033;-81
2022/06/03 08:34:39;;;;;;;1.45;1.35;;;19.50;99.90;;;;;;5018709;28;20072;-82
2022/06/03 08:37:08;;;;;;;3.40;1.42;;;19.70;99.90;;;;;;5017358;28;20174;-82
2022/06/03 08:39:34;;;;;;;1.95;1.60;;;19.90;99.90;;;;;;5016543;28;20441;-82
2022/06/03 08:42:07;;;;;;;3.38;1.33;;;20.00;99.90;;;;;;5016451;28;20029;-83
2022/06/03 08:44:53;;;;;;;5.88;1.40;;;20.20;99.90;;;;;;5009948;28;20052;-84
2022/06/03 08:47:42;;;;;;;6.03;1.33;;;20.40;99.90;;;;;;5023431;28;20041;-82
2022/06/03 08:50:24;;;;;;;2.72;1.50;;;20.60;99.10;;;;;;5012960;28;20080;-85
2022/06/03 08:53:08;;;;;;;3.15;1.30;;;20.90;95.70;;;;;;5017672;28;20520;-82
2022/06/03 08:55:37;;;;;;;4.93;1.38;;;20.90;95.50;;;;;;5009931;28;20049;-85
2022/06/03 08:58:24;;;;;;;2.05;1.20;;;20.90;93.90;;;;;;5013121;28;20057;-84
2022/06/03 09:01:14;;;;;;;2.55;1.30;;;20.90;94.20;;;;;;5018693;28;20478;-84
2022/06/03 09:04:11;;;;;;;3.03;1.20;;;20.70;94.00;;;;;;5014191;28;20025;-83
2022/06/03 09:06:59;;;;;;;1.38;1.00;;;20.70;92.40;;;;;;5002426;28;20038;-83
2022/06/03 09:09:32;;;;;;;1.92;1.20;;;20.70;92.10;;;;;;5013114;28;20068;-81
2022/06/03 09:12:12;;;;;;;3.75;1.33;;;20.80;92.20;;;;;;5006423;28;20034;-80
2022/06/03 09:14:42;;;;;;;4.10;1.40;;;21.00;92.40;;;;;;5005438;28;20482;-82
2022/06/03 09:18:04;;;;;;;5.03;1.35;;;20.80;92.90;;;;;;5012057;28;20038;-81
2022/06/03 09:20:36;;;;;;;2.90;1.20;;;20.60;93.20;;;;;;4933575;28;20059;-82
2022/06/03 09:23:07;;;;;;;1.80;1.27;;;20.60;92.40;;;;;;4927580;28;20034;-82
2022/06/03 09:25:37;;;;;;;2.78;1.10;;;20.60;92.80;;;;;;4986826;28;20125;-81
2022/06/03 09:28:06;;;;;;;1.88;1.50;;;20.60;93.10;;;;;;5021760;28;20111;-82
2022/06/03 09:30:38;;;;;;;2.47;1.10;;;20.60;92.90;;;;;;5022297;28;20057;-82
2022/06/03 09:33:06;;;;;;;1.40;1.17;;;20.70;92.10;;;;;;5022904;28;20053;-84
2022/06/03 09:35:34;;;;;;;3.83;1.30;;;20.80;93.20;;;;;;5025994;28;20493;-85
2022/06/03 09:38:02;;;;;;;1.23;1.10;;;21.10;91.40;;;;;;5026364;28;20136;-82
2022/06/03 09:40:31;;;;;;;1.88;1.20;;;21.20;92.00;;;;;;5018913;28;20165;-82
2022/06/03 09:43:03;;;;;;;2.97;1.30;;;21.20;90.50;;;;;;5021503;28;20104;-83
2022/06/03 09:45:30;;;;;;;1.30;1.15;;;21.30;92.00;;;;;;5015355;28;20562;-85
2022/06/03 09:47:56;;;;;;;3.83;1.20;;;21.40;91.50;;;;;;5022722;28;20045;-85
2022/06/03 09:50:25;;;;;;;3.83;1.20;;;21.50;90.90;;;;;;5017806;28;20044;-83
2022/06/03 09:52:59;;;;;;;1.50;1.05;;;21.50;91.10;;;;;;5026941;28;20025;-85
2022/06/03 09:55:27;;;;;;;4.57;1.40;;;21.40;90.40;;;;;;5029916;28;20033;-85
2022/06/03 09:57:56;;;;;;;3.35;1.45;;;21.40;92.20;;;;;;5030236;28;20056;-84
2022/06/03 10:00:26;;;;;;;2.83;1.20;;;21.50;92.10;;;;;;5024869;28;20430;-83
2022/06/03 10:02:56;;;;;;;5.10;1.38;;;21.50;92.30;;;;;;5022961;28;20029;-83
2022/06/03 10:05:23;;;;;;;4.97;1.42;;;21.60;91.10;;;;;;5021675;28;20092;-84
2022/06/03 10:07:57;;;;;;;1.85;1.20;;;21.60;91.40;;;;;;5020120;28;20029;-83
2022/06/03 10:13:08;;;;;;;2.40;1.30;;;21.60;90.20;;;;;;5016432;28;20167;-86
2022/06/03 10:15:46;;;;;;;2.63;1.08;;;21.70;90.60;;;;;;5018989;28;20047;-80
2022/06/03 10:18:20;;;;;;;1.63;1.48;;;21.70;91.10;;;;;;5023230;28;20076;-80
2022/06/03 10:20:51;;;;;;;3.80;1.10;;;21.60;90.20;;;;;;5023946;28;20523;-81
2022/06/03 10:23:21;;;;;;;3.33;1.33;;;21.60;89.80;;;;;;5014053;28;20026;-89
2022/06/03 10:25:49;;;;;;;2.80;1.20;;;22.00;87.50;;;;;;5023906;28;21378;-91
2022/06/03 10:28:16;;;;;;;4.38;1.20;;;22.00;88.70;;;;;;5022875;28;20037;-89
2022/06/03 10:30:43;;;;;;;1.25;1.10;;;22.20;87.80;;;;;;5021702;28;20036;-88
2022/06/03 10:33:21;;;;;;;5.60;1.42;;;22.30;89.70;;;;;;5015097;28;20064;-88
2022/06/03 10:35:49;;;;;;;2.47;1.10;;;22.40;89.40;;;;;;5023897;28;20133;-89
2022/06/03 10:38:18;;;;;;;1.42;1.02;;;22.60;88.00;;;;;;5014195;28;20437;-90
2022/06/03 10:40:48;;;;;;;4.00;1.20;;;22.60;85.30;;;;;;5017583;28;20037;-89
2022/06/03 10:43:22;;;;;;;1.58;0.98;;;22.70;86.80;;;;;;5020840;28;20113;-90
2022/06/03 10:45:48;;;;;;;3.13;1.20;;;22.70;84.40;;;;;;5018933;28;20026;-88
2022/06/03 10:48:24;;;;;;;2.15;1.27;;;22.70;84.20;;;;;;5021136;28;20527;-89
2022/06/03 10:50:50;;;;;;;3.10;1.30;;;22.80;85.90;;;;;;5018506;28;20505;-86
2022/06/03 11:02:15;;;;;;;2.35;1.13;;;23.30;79.80;;;;;;5023172;28;20094;-90
2022/06/03 11:04:41;;;;;;;2.92;1.40;;;23.30;83.50;;;;;;5017981;28;20153;-86
2022/06/03 11:07:30;;;;;;;1.23;1.20;;;23.30;80.40;;;;;;5014924;28;20116;-87
2022/06/03 11:10:01;;;;;;;1.27;1.17;;;23.20;84.40;;;;;;5012183;28;20088;-90
2022/06/03 11:12:29;;;;;;;2.85;1.30;;;23.10;81.80;;;;;;5013720;28;20033;-86
2022/06/03 11:14:56;;;;;;;1.48;1.10;;;22.90;83.00;;;;;;5016504;28;20091;-85
2022/06/03 11:17:40;;;;;;;1.40;1.30;;;22.80;84.30;;;;;;5019161;28;20037;-86
2022/06/03 11:20:29;;;;;;;3.35;1.30;;;23.00;84.70;;;;;;5013940;28;20052;-87
2022/06/03 11:22:56;;;;;;;4.15;1.35;;;23.20;82.90;;;;;;5015819;28;20039;-85
2022/06/03 11:25:27;;;;;;;3.85;1.40;;;23.20;81.70;;;;;;5023150;28;20033;-86
2022/06/03 11:27:58;;;;;;;2.75;1.38;;;23.20;84.00;;;;;;5023735;28;20119;-85
2022/06/03 11:30:48;;;;;;;5.35;1.10;;;23.20;83.50;;;;;;5012686;28;20065;-85
2022/06/03 11:33:27;;;;;;;1.65;1.40;;;23.30;82.50;;;;;;5009540;28;20059;-86
2022/06/03 11:36:27;;;;;;;2.63;1.20;;;23.60;81.30;;;;;;5015666;28;20038;-87
2022/06/03 11:39:32;;;;;;;1.52;1.30;;;23.90;78.70;;;;;;5014792;28;20140;-86
2022/06/03 11:42:07;;;;;;;1.35;1.25;;;24.10;78.90;;;;;;5010850;28;20049;-85
2022/06/03 11:45:09;;;;;;;3.67;1.35;;;24.40;80.90;;;;;;5022229;28;20033;-86
2022/06/03 11:47:54;;;;;;;1.48;1.27;;;24.70;76.00;;;;;;5015505;28;20116;-85
2022/06/03 11:50:24;;;;;;;2.15;1.30;;;24.80;73.70;;;;;;5014417;28;20119;-85
2022/06/03 11:52:52;;;;;;;2.78;1.30;;;24.90;74.80;;;;;;5021326;28;20036;-85
2022/06/03 11:55:21;;;;;;;3.50;1.25;;;25.00;76.00;;;;;;5016733;28;20370;-85
2022/06/03 11:58:16;;;;;;;1.38;1.27;;;25.10;73.20;;;;;;5016408;28;20367;-86
2022/06/03 12:00:49;;;;;;;1.33;1.23;;;25.40;73.70;;;;;;5018004;28;21077;-85
2022/06/03 12:03:37;;;;;;;3.42;1.30;;;25.60;71.00;;;;;;5017823;28;20026;-85
2022/06/03 12:06:13;;;;;;;6.13;1.30;;;25.70;73.60;;;;;;5017914;28;20037;-86
2022/06/03 12:08:52;;;;;;;3.65;1.40;;;25.50;74.50;;;;;;5016086;28;20105;-84
2022/06/03 12:14:25;;;;;;;1.45;1.02;;;25.50;72.10;;;;;;5013146;28;20088;-83
2022/06/03 12:16:53;;;;;;;1.15;1.00;;;25.50;70.10;;;;;;5014388;28;20030;-83
2022/06/03 12:19:42;;;;;;;3.72;1.20;;;25.60;71.40;;;;;;5010722;28;20125;-85
2022/06/03 12:22:17;;;;;;;1.10;1.08;;;25.50;73.70;;;;;;5009788;28;20183;-84
2022/06/03 12:24:46;;;;;;;1.70;1.30;;;25.30;73.70;;;;;;5019720;28;20508;-84
2022/06/03 12:27:18;;;;;;;2.30;1.25;;;25.20;74.80;;;;;;5020862;28;20026;-84
2022/06/03 12:29:55;;;;;;;1.90;1.42;;;25.10;71.80;;;;;;5012702;28;20030;-84
2022/06/03 12:32:28;;;;;;;1.30;1.20;;;24.90;72.90;;;;;;5008051;28;20438;-84
2022/06/03 12:35:32;;;;;;;3.53;1.50;;;25.00;74.90;;;;;;5012045;28;20092;-84
2022/06/03 12:38:19;;;;;;;5.57;1.33;;;25.00;79.30;;;;;;5019562;28;20497;-84
2022/06/03 12:40:57;;;;;;;2.90;1.02;;;24.80;77.60;;;;;;5019203;28;20036;-84
2022/06/03 12:43:29;;;;;;;3.08;1.50;;;24.80;76.90;;;;;;5019951;28;20502;-84
2022/06/03 12:46:07;;;;;;;6.80;1.50;;;24.70;78.60;;;;;;5011066;28;20524;-84
2022/06/03 12:48:51;;;;;;;2.80;1.50;;;24.60;73.50;;;;;;5019017;28;20778;-84
2022/06/03 12:51:26;;;;;;;2.83;1.40;;;24.60;77.90;;;;;;5021610;28;20025;-84
2022/06/03 12:54:16;;;;;;;2.92;1.30;;;24.70;73.10;;;;;;5008344;28;20406;-84
2022/06/03 12:56:41;;;;;;;1.67;1.30;;;24.80;72.90;;;;;;5014420;28;20076;-84
2022/06/03 12:59:16;;;;;;;2.00;1.40;;;24.90;74.50;;;;;;5010494;28;20449;-83
2022/06/03 13:01:47;;;;;;;3.00;1.40;;;25.00;74.40;;;;;;5016225;28;20108;-83
2022/06/03 13:04:37;;;;;;;2.85;1.48;;;25.00;70.60;;;;;;5022861;28;20788;-84
2022/06/03 13:07:27;;;;;;;2.22;1.40;;;25.30;73.50;;;;;;5014176;28;20030;-85
2022/06/03 13:10:02;;;;;;;1.65;1.30;;;25.40;72.50;;;;;;5016371;28;20030;-82
2022/06/03 13:12:34;;;;;;;2.10;1.50;;;25.40;72.60;;;;;;5023567;28;20076;-82
2022/06/03 13:15:21;;;;;;;1.75;1.50;;;25.40;72.00;;;;;;5019746;28;20034;-82
2022/06/03 13:18:10;;;;;;;1.55;1.30;;;25.40;73.50;;;;;;5021944;28;20493;-82
2022/06/03 13:20:35;;;;;;;2.88;1.30;;;25.30;73.40;;;;;;5014642;28;20428;-82
2022/06/03 13:23:01;;;;;;;7.65;1.30;;;25.20;72.40;;;;;;5017476;28;20021;-82
2022/06/03 13:25:31;;;;;;;2.55;1.50;;;25.20;73.30;;;;;;5018253;28;20029;-82
2022/06/03 13:28:14;;;;;;;1.70;1.40;;;25.20;73.20;;;;;;5028222;28;20631;-82
2022/06/03 13:30:40;;;;;;;1.50;1.40;;;25.40;72.70;;;;;;5020399;28;20033;-83
2022/06/03 13:33:20;;;;;;;3.00;1.50;;;25.40;72.20;;;;;;5019769;28;20541;-82
2022/06/03 13:36:30;;;;;;;1.92;1.67;;;25.40;71.90;;;;;;5019298;28;20035;-82
2022/06/03 13:38:56;;;;;;;3.58;1.38;;;25.50;70.30;;;;;;5004072;28;20418;-82
2022/06/03 13:44:46;;;;;;;3.30;1.30;;;26.20;70.90;;;;;;5018762;28;20028;-83
2022/06/03 13:47:23;;;;;;;2.88;1.40;;;26.20;75.40;;;;;;5026448;28;20033;-82
2022/06/03 13:49:54;;;;;;;2.13;1.50;;;26.00;71.60;;;;;;5024938;28;20124;-83
2022/06/03 13:52:29;;;;;;;4.35;1.50;;;25.80;74.40;;;;;;5017264;28;20084;-82
2022/06/03 13:55:17;;;;;;;1.33;1.20;;;25.60;71.90;;;;;;5026134;28;20091;-82
2022/06/03 13:57:51;;;;;;;2.10;1.70;;;25.50;73.60;;;;;;5014686;28;20033;-82
2022/06/03 14:00:24;;;;;;;2.22;1.38;;;25.60;70.90;;;;;;5019455;28;20115;-82
2022/06/03 14:03:13;;;;;;;4.03;1.40;;;25.70;71.60;;;;;;5022859;28;20026;-83
2022/06/03 14:05:53;;;;;;;6.22;1.90;;;25.80;74.40;;;;;;5015907;28;20474;-85
2022/06/03 14:08:28;;;;;;;2.00;1.70;;;25.90;70.20;;;;;;5012283;28;20045;-85
2022/06/03 14:11:13;;;;;;;4.10;1.50;;;25.80;73.70;;;;;;5017713;28;20215;-86
2022/06/03 14:14:13;;;;;;;4.43;1.90;;;25.80;72.60;;;;;;5017777;28;20106;-85
2022/06/03 14:16:49;;;;;;;2.17;1.48;;;25.70;70.90;;;;;;5014328;28;20026;-85
2022/06/03 14:19:28;;;;;;;2.03;1.52;;;25.80;71.50;;;;;;5019752;28;20030;-85
2022/06/03 14:21:55;;;;;;;1.70;1.60;;;25.90;71.20;;;;;;5020633;28;20116;-85
2022/06/03 14:24:40;;;;;;;1.60;1.50;;;25.90;68.60;;;;;;5027662;28;20026;-84
2022/06/03 14:27:43;;;;;;;1.70;1.60;;;26.00;69.10;;;;;;5023088;28;20485;-84
2022/06/03 14:30:22;;;;;;;2.13;1.55;;;26.00;69.30;;;;;;5022999;28;20028;-85
2022/06/03 14:32:55;;;;;;;1.48;1.38;;;26.00;74.50;;;;;;5017309;28;20480;-85
2022/06/03 14:35:44;;;;;;;6.25;1.70;;;26.00;71.70;;;;;;5028557;28;20052;-85
2022/06/03 14:38:26;;;;;;;4.50;1.60;;;26.00;74.80;;;;;;5016942;28;20398;-87